sensor_id;sensor_type;location;lat;lon;timestamp;pressure;altitude;pressure_sealevel;temperature;humidity
64460;BME280;50828;53.756;21.140;2023-06-10T00:04:41;100104.87;;;18.37;39.99
64460;BME280;50828;53.756;21.140;2023-06-10T00:09:49;100109.19;;;18.28;40.28
64460;BME280;50828;53.756;21.140;2023-06-10T00:14:57;100109.79;;;18.20;40.32
64460;BME280;50828;53.756;21.140;2023-06-10T00:20:06;100106.39;;;18.13;40.34
64460;BME280;50828;53.756;21.140;2023-06-10T00:25:15;100105.02;;;18.05;40.33
64460;BME280;50828;53.756;21.140;2023-06-10T00:30:22;100113.73;;;17.97;40.46
64460;BME280;50828;53.756;21.140;2023-06-10T00:35:30;100114.09;;;17.90;40.67
64460;BME280;50828;53.756;21.140;2023-06-10T00:40:42;100114.98;;;17.82;40.55
64460;BME280;50828;53.756;21.140;2023-06-10T00:45:50;100116.96;;;17.73;40.77
64460;BME280;50828;53.756;21.140;2023-06-10T00:50:59;100119.66;;;17.66;40.97
64460;BME280;50828;53.756;21.140;2023-06-10T00:56:08;100121.59;;;17.58;41.00
64460;BME280;50828;53.756;21.140;2023-06-10T01:01:15;100121.79;;;17.50;41.04
64460;BME280;50828;53.756;21.140;2023-06-10T01:06:32;100128.97;;;17.44;40.96
64460;BME280;50828;53.756;21.140;2023-06-10T01:11:47;100134.83;;;17.36;41.24
64460;BME280;50828;53.756;21.140;2023-06-10T01:16:56;100133.34;;;17.30;41.23
64460;BME280;50828;53.756;21.140;2023-06-10T01:22:05;100137.84;;;17.21;41.27
64460;BME280;50828;53.756;21.140;2023-06-10T01:27:16;100143.36;;;17.16;41.47
64460;BME280;50828;53.756;21.140;2023-06-10T01:32:29;100144.42;;;17.10;41.60
64460;BME280;50828;53.756;21.140;2023-06-10T01:37:40;100146.67;;;17.03;41.68
64460;BME280;50828;53.756;21.140;2023-06-10T01:42:50;100151.02;;;16.96;41.90
64460;BME280;50828;53.756;21.140;2023-06-10T01:47:59;100151.11;;;16.90;41.92
64460;BME280;50828;53.756;21.140;2023-06-10T01:53:07;100146.45;;;16.82;41.78
64460;BME280;50828;53.756;21.140;2023-06-10T01:58:15;100150.36;;;16.77;42.13
64460;BME280;50828;53.756;21.140;2023-06-10T02:03:22;100153.89;;;16.68;42.27
64460;BME280;50828;53.756;21.140;2023-06-10T02:08:34;100161.67;;;16.61;42.47
64460;BME280;50828;53.756;21.140;2023-06-10T02:13:41;100160.73;;;16.53;42.57
64460;BME280;50828;53.756;21.140;2023-06-10T02:18:49;100156.31;;;16.44;42.62
64460;BME280;50828;53.756;21.140;2023-06-10T02:23:56;100163.05;;;16.39;42.46
64460;BME280;50828;53.756;21.140;2023-06-10T02:29:04;100165.53;;;16.31;42.47
64460;BME280;50828;53.756;21.140;2023-06-10T02:34:12;100169.10;;;16.25;42.65
64460;BME280;50828;53.756;21.140;2023-06-10T02:39:20;100171.45;;;16.19;42.83
64460;BME280;50828;53.756;21.140;2023-06-10T02:44:28;100174.88;;;16.12;42.96
64460;BME280;50828;53.756;21.140;2023-06-10T02:49:35;100183.65;;;16.06;42.73
64460;BME280;50828;53.756;21.140;2023-06-10T02:54:43;100186.42;;;16.01;43.07
64460;BME280;50828;53.756;21.140;2023-06-10T02:59:52;100190.80;;;15.96;42.96
64460;BME280;50828;53.756;21.140;2023-06-10T03:05:01;100189.23;;;15.89;42.96
64460;BME280;50828;53.756;21.140;2023-06-10T03:10:09;100194.70;;;15.87;43.05
64460;BME280;50828;53.756;21.140;2023-06-10T03:15:18;100196.11;;;15.85;42.90
64460;BME280;50828;53.756;21.140;2023-06-10T03:20:26;100203.90;;;15.82;42.82
64460;BME280;50828;53.756;21.140;2023-06-10T03:25:35;100208.40;;;15.81;42.74
64460;BME280;50828;53.756;21.140;2023-06-10T03:30:44;100207.30;;;15.79;42.60
64460;BME280;50828;53.756;21.140;2023-06-10T03:35:52;100217.61;;;15.78;42.48
64460;BME280;50828;53.756;21.140;2023-06-10T03:41:00;100216.71;;;15.75;42.66
64460;BME280;50828;53.756;21.140;2023-06-10T03:46:08;100226.77;;;15.77;42.50
64460;BME280;50828;53.756;21.140;2023-06-10T03:51:16;100229.42;;;15.76;42.29
64460;BME280;50828;53.756;21.140;2023-06-10T03:56:24;100229.29;;;15.76;42.20
64460;BME280;50828;53.756;21.140;2023-06-10T04:01:32;100230.27;;;15.77;42.22
64460;BME280;50828;53.756;21.140;2023-06-10T04:06:43;100228.79;;;15.79;42.42
64460;BME280;50828;53.756;21.140;2023-06-10T04:11:50;100228.58;;;15.85;42.30
64460;BME280;50828;53.756;21.140;2023-06-10T04:16:58;100234.81;;;16.00;42.66
64460;BME280;50828;53.756;21.140;2023-06-10T04:22:08;100239.91;;;16.15;42.56
64460;BME280;50828;53.756;21.140;2023-06-10T04:27:16;100239.39;;;16.26;42.83
64460;BME280;50828;53.756;21.140;2023-06-10T04:32:24;100239.30;;;16.36;42.86
64460;BME280;50828;53.756;21.140;2023-06-10T04:37:32;100239.95;;;16.43;42.68
64460;BME280;50828;53.756;21.140;2023-06-10T04:42:40;100238.83;;;16.47;42.82
64460;BME280;50828;53.756;21.140;2023-06-10T04:47:48;100248.73;;;16.53;42.99
64460;BME280;50828;53.756;21.140;2023-06-10T04:52:56;100249.29;;;16.64;42.78
64460;BME280;50828;53.756;21.140;2023-06-10T04:58:04;100257.09;;;16.73;42.87
64460;BME280;50828;53.756;21.140;2023-06-10T05:03:12;100256.21;;;16.79;42.52
64460;BME280;50828;53.756;21.140;2023-06-10T05:08:20;100265.20;;;16.82;42.59
64460;BME280;50828;53.756;21.140;2023-06-10T05:13:27;100266.33;;;16.85;42.64
64460;BME280;50828;53.756;21.140;2023-06-10T05:18:35;100265.71;;;16.92;42.70
64460;BME280;50828;53.756;21.140;2023-06-10T05:23:43;100274.00;;;17.01;42.70
64460;BME280;50828;53.756;21.140;2023-06-10T05:28:51;100273.48;;;17.12;42.52
64460;BME280;50828;53.756;21.140;2023-06-10T05:33:59;100276.75;;;17.25;42.57
64460;BME280;50828;53.756;21.140;2023-06-10T05:39:06;100278.36;;;17.43;42.35
64460;BME280;50828;53.756;21.140;2023-06-10T05:44:14;100276.14;;;17.66;42.05
64460;BME280;50828;53.756;21.140;2023-06-10T05:49:22;100274.06;;;17.92;41.85
64460;BME280;50828;53.756;21.140;2023-06-10T05:54:30;100272.64;;;18.21;41.61
64460;BME280;50828;53.756;21.140;2023-06-10T05:59:37;100278.63;;;18.55;41.46
64460;BME280;50828;53.756;21.140;2023-06-10T06:04:45;100274.58;;;18.87;40.87
64460;BME280;50828;53.756;21.140;2023-06-10T06:09:53;100279.73;;;19.17;40.36
64460;BME280;50828;53.756;21.140;2023-06-10T06:15:01;100271.33;;;19.41;40.06
64460;BME280;50828;53.756;21.140;2023-06-10T06:20:10;100278.41;;;19.59;39.43
64460;BME280;50828;53.756;21.140;2023-06-10T06:25:18;100278.33;;;19.70;38.99
64460;BME280;50828;53.756;21.140;2023-06-10T06:30:25;100277.03;;;19.75;38.71
64460;BME280;50828;53.756;21.140;2023-06-10T06:35:34;100276.55;;;19.77;38.53
64460;BME280;50828;53.756;21.140;2023-06-10T06:40:41;100282.65;;;19.79;38.39
64460;BME280;50828;53.756;21.140;2023-06-10T06:45:48;100281.98;;;19.81;38.39
64460;BME280;50828;53.756;21.140;2023-06-10T06:50:56;100279.47;;;19.86;38.28
64460;BME280;50828;53.756;21.140;2023-06-10T06:56:04;100282.26;;;19.91;38.27
64460;BME280;50828;53.756;21.140;2023-06-10T07:01:12;100280.78;;;19.94;38.29
64460;BME280;50828;53.756;21.140;2023-06-10T07:06:20;100284.11;;;19.95;38.19
64460;BME280;50828;53.756;21.140;2023-06-10T07:11:28;100285.47;;;19.98;38.33
64460;BME280;50828;53.756;21.140;2023-06-10T07:16:36;100282.55;;;20.02;38.15
64460;BME280;50828;53.756;21.140;2023-06-10T07:21:43;100284.11;;;20.07;37.86
64460;BME280;50828;53.756;21.140;2023-06-10T07:26:51;100287.23;;;20.10;37.86
64460;BME280;50828;53.756;21.140;2023-06-10T07:31:59;100287.23;;;20.15;37.73
64460;BME280;50828;53.756;21.140;2023-06-10T07:37:08;100285.31;;;20.19;37.81
64460;BME280;50828;53.756;21.140;2023-06-10T07:42:16;100290.46;;;20.28;37.89
64460;BME280;50828;53.756;21.140;2023-06-10T07:47:24;100294.02;;;20.43;37.88
64460;BME280;50828;53.756;21.140;2023-06-10T07:52:32;100290.58;;;20.61;37.67
64460;BME280;50828;53.756;21.140;2023-06-10T07:57:39;100296.95;;;20.80;37.46
64460;BME280;50828;53.756;21.140;2023-06-10T08:02:47;100296.72;;;20.97;37.44
64460;BME280;50828;53.756;21.140;2023-06-10T08:07:55;100298.94;;;21.11;36.96
64460;BME280;50828;53.756;21.140;2023-06-10T08:13:05;100308.06;;;21.27;36.83
64460;BME280;50828;53.756;21.140;2023-06-10T08:18:13;100313.23;;;21.42;36.51
64460;BME280;50828;53.756;21.140;2023-06-10T08:23:20;100312.55;;;21.58;36.26
64460;BME280;50828;53.756;21.140;2023-06-10T08:28:28;100314.96;;;21.76;36.13
64460;BME280;50828;53.756;21.140;2023-06-10T08:33:35;100320.30;;;22.02;36.00
64460;BME280;50828;53.756;21.140;2023-06-10T08:38:43;100315.58;;;22.28;35.48
64460;BME280;50828;53.756;21.140;2023-06-10T08:43:57;100313.92;;;22.50;34.72
64460;BME280;50828;53.756;21.140;2023-06-10T08:49:08;100319.27;;;22.62;33.96
64460;BME280;50828;53.756;21.140;2023-06-10T08:54:20;100321.14;;;22.70;33.54
64460;BME280;50828;53.756;21.140;2023-06-10T08:59:29;100319.86;;;22.72;33.29
64460;BME280;50828;53.756;21.140;2023-06-10T09:04:38;100317.34;;;22.72;33.10
64460;BME280;50828;53.756;21.140;2023-06-10T09:09:46;100319.86;;;22.72;32.99
64460;BME280;50828;53.756;21.140;2023-06-10T09:14:53;100319.66;;;22.68;32.80
64460;BME280;50828;53.756;21.140;2023-06-10T09:20:01;100319.02;;;22.69;32.78
64460;BME280;50828;53.756;21.140;2023-06-10T09:25:12;100314.88;;;22.67;32.34
64460;BME280;50828;53.756;21.140;2023-06-10T09:30:28;100308.58;;;22.66;32.23
64460;BME280;50828;53.756;21.140;2023-06-10T09:35:37;100318.21;;;22.66;32.13
64460;BME280;50828;53.756;21.140;2023-06-10T09:40:53;100313.71;;;22.66;31.99
64460;BME280;50828;53.756;21.140;2023-06-10T09:46:01;100308.98;;;22.67;31.92
64460;BME280;50828;53.756;21.140;2023-06-10T09:51:12;100320.83;;;22.69;31.86
64460;BME280;50828;53.756;21.140;2023-06-10T09:56:20;100324.60;;;22.71;31.75
64460;BME280;50828;53.756;21.140;2023-06-10T10:01:30;100322.55;;;22.72;31.45
64460;BME280;50828;53.756;21.140;2023-06-10T10:06:39;100317.27;;;22.71;31.50
64460;BME280;50828;53.756;21.140;2023-06-10T10:11:48;100323.39;;;22.70;31.40
64460;BME280;50828;53.756;21.140;2023-06-10T10:16:56;100315.31;;;22.71;31.34
64460;BME280;50828;53.756;21.140;2023-06-10T10:22:08;100316.86;;;22.75;31.44
64460;BME280;50828;53.756;21.140;2023-06-10T10:27:20;100312.94;;;22.79;31.34
64460;BME280;50828;53.756;21.140;2023-06-10T10:32:32;100311.11;;;22.82;31.08
64460;BME280;50828;53.756;21.140;2023-06-10T10:37:42;100309.25;;;22.84;30.98
64460;BME280;50828;53.756;21.140;2023-06-10T10:42:51;100309.85;;;22.88;30.95
64460;BME280;50828;53.756;21.140;2023-06-10T10:47:59;100310.23;;;22.92;30.75
64460;BME280;50828;53.756;21.140;2023-06-10T10:53:12;100309.89;;;22.98;30.77
64460;BME280;50828;53.756;21.140;2023-06-10T10:58:27;100308.23;;;23.04;30.89
64460;BME280;50828;53.756;21.140;2023-06-10T11:03:44;100308.48;;;23.12;30.82
64460;BME280;50828;53.756;21.140;2023-06-10T11:08:53;100310.11;;;23.19;30.44
64460;BME280;50828;53.756;21.140;2023-06-10T11:14:10;100312.00;;;23.26;30.39
64460;BME280;50828;53.756;21.140;2023-06-10T11:19:33;100303.70;;;23.29;30.10
64460;BME280;50828;53.756;21.140;2023-06-10T11:24:41;100302.14;;;23.30;30.09
64460;BME280;50828;53.756;21.140;2023-06-10T11:30:17;100302.88;;;23.32;29.96
64460;BME280;50828;53.756;21.140;2023-06-10T11:35:27;100295.73;;;23.34;29.85
64460;BME280;50828;53.756;21.140;2023-06-10T11:40:36;100296.14;;;23.35;29.77
64460;BME280;50828;53.756;21.140;2023-06-10T11:45:44;100293.48;;;23.38;30.03
64460;BME280;50828;53.756;21.140;2023-06-10T11:50:54;100294.58;;;23.40;29.92
64460;BME280;50828;53.756;21.140;2023-06-10T11:56:01;100290.23;;;23.43;29.93
64460;BME280;50828;53.756;21.140;2023-06-10T12:01:09;100291.90;;;23.46;29.98
64460;BME280;50828;53.756;21.140;2023-06-10T12:06:24;100297.16;;;23.48;29.61
64460;BME280;50828;53.756;21.140;2023-06-10T12:11:32;100299.89;;;23.51;29.50
64460;BME280;50828;53.756;21.140;2023-06-10T12:16:40;100295.98;;;23.52;29.58
64460;BME280;50828;53.756;21.140;2023-06-10T12:21:55;100306.30;;;23.54;29.41
64460;BME280;50828;53.756;21.140;2023-06-10T12:27:03;100298.27;;;23.53;29.20
64460;BME280;50828;53.756;21.140;2023-06-10T12:32:11;100303.27;;;23.53;29.45
64460;BME280;50828;53.756;21.140;2023-06-10T12:37:20;100300.91;;;23.54;29.17
64460;BME280;50828;53.756;21.140;2023-06-10T12:42:29;100300.71;;;23.54;29.16
64460;BME280;50828;53.756;21.140;2023-06-10T12:47:38;100302.30;;;23.54;29.00
64460;BME280;50828;53.756;21.140;2023-06-10T12:52:46;100297.70;;;23.55;28.89
64460;BME280;50828;53.756;21.140;2023-06-10T12:57:53;100289.67;;;23.57;29.06
64460;BME280;50828;53.756;21.140;2023-06-10T13:03:03;100291.20;;;23.57;29.08
64460;BME280;50828;53.756;21.140;2023-06-10T13:08:12;100289.64;;;23.61;28.99
64460;BME280;50828;53.756;21.140;2023-06-10T13:13:20;100281.16;;;23.63;28.80
64460;BME280;50828;53.756;21.140;2023-06-10T13:18:27;100278.66;;;23.63;28.69
64460;BME280;50828;53.756;21.140;2023-06-10T13:23:35;100275.43;;;23.67;28.71
64460;BME280;50828;53.756;21.140;2023-06-10T13:28:43;100275.84;;;23.69;28.65
64460;BME280;50828;53.756;21.140;2023-06-10T13:33:50;100269.40;;;23.68;28.31
64460;BME280;50828;53.756;21.140;2023-06-10T13:38:58;100273.79;;;23.69;28.63
64460;BME280;50828;53.756;21.140;2023-06-10T13:44:06;100273.90;;;23.70;28.50
64460;BME280;50828;53.756;21.140;2023-06-10T13:49:13;100267.81;;;23.71;28.37
64460;BME280;50828;53.756;21.140;2023-06-10T13:54:21;100274.71;;;23.72;28.61
64460;BME280;50828;53.756;21.140;2023-06-10T13:59:29;100277.41;;;23.75;28.48
64460;BME280;50828;53.756;21.140;2023-06-10T14:04:37;100270.63;;;23.74;28.44
64460;BME280;50828;53.756;21.140;2023-06-10T14:09:44;100265.77;;;23.74;28.39
64460;BME280;50828;53.756;21.140;2023-06-10T14:14:52;100266.61;;;23.73;28.37
64460;BME280;50828;53.756;21.140;2023-06-10T14:20:00;100275.97;;;23.73;28.20
64460;BME280;50828;53.756;21.140;2023-06-10T14:25:09;100271.64;;;23.71;28.12
64460;BME280;50828;53.756;21.140;2023-06-10T14:30:18;100275.26;;;23.71;28.06
64460;BME280;50828;53.756;21.140;2023-06-10T14:35:26;100271.06;;;23.69;28.04
64460;BME280;50828;53.756;21.140;2023-06-10T14:40:34;100270.15;;;23.68;27.96
64460;BME280;50828;53.756;21.140;2023-06-10T14:45:42;100272.44;;;23.68;27.98
64460;BME280;50828;53.756;21.140;2023-06-10T14:50:51;100271.20;;;23.68;27.76
64460;BME280;50828;53.756;21.140;2023-06-10T14:56:00;100266.60;;;23.67;27.62
64460;BME280;50828;53.756;21.140;2023-06-10T15:01:08;100257.13;;;23.64;27.33
64460;BME280;50828;53.756;21.140;2023-06-10T15:06:16;100266.09;;;23.63;27.08
64460;BME280;50828;53.756;21.140;2023-06-10T15:11:27;100259.88;;;23.60;27.16
64460;BME280;50828;53.756;21.140;2023-06-10T15:16:34;100263.34;;;23.57;26.93
64460;BME280;50828;53.756;21.140;2023-06-10T15:21:42;100265.64;;;23.54;26.82
64460;BME280;50828;53.756;21.140;2023-06-10T15:26:50;100266.19;;;23.50;27.23
64460;BME280;50828;53.756;21.140;2023-06-10T15:31:59;100266.77;;;23.48;26.79
64460;BME280;50828;53.756;21.140;2023-06-10T15:37:08;100271.99;;;23.45;26.90
64460;BME280;50828;53.756;21.140;2023-06-10T15:42:16;100267.45;;;23.40;26.57
64460;BME280;50828;53.756;21.140;2023-06-10T15:47:24;100270.80;;;23.37;26.59
64460;BME280;50828;53.756;21.140;2023-06-10T15:52:31;100279.21;;;23.31;26.47
64460;BME280;50828;53.756;21.140;2023-06-10T15:57:39;100280.50;;;23.25;26.65
64460;BME280;50828;53.756;21.140;2023-06-10T16:02:46;100286.20;;;23.18;26.61
64460;BME280;50828;53.756;21.140;2023-06-10T16:07:54;100287.77;;;23.10;26.66
64460;BME280;50828;53.756;21.140;2023-06-10T16:13:03;100288.73;;;23.01;26.68
64460;BME280;50828;53.756;21.140;2023-06-10T16:18:11;100288.05;;;22.95;26.82
64460;BME280;50828;53.756;21.140;2023-06-10T16:23:19;100290.92;;;22.88;26.72
64460;BME280;50828;53.756;21.140;2023-06-10T16:28:26;100295.78;;;22.82;26.70
64460;BME280;50828;53.756;21.140;2023-06-10T16:33:34;100299.45;;;22.78;26.71
64460;BME280;50828;53.756;21.140;2023-06-10T16:38:42;100304.09;;;22.74;26.74
64460;BME280;50828;53.756;21.140;2023-06-10T16:43:49;100306.64;;;22.69;26.66
64460;BME280;50828;53.756;21.140;2023-06-10T16:48:57;100316.52;;;22.65;26.55
64460;BME280;50828;53.756;21.140;2023-06-10T16:54:05;100315.81;;;22.59;26.46
64460;BME280;50828;53.756;21.140;2023-06-10T16:59:13;100317.83;;;22.54;26.59
64460;BME280;50828;53.756;21.140;2023-06-10T17:04:20;100321.25;;;22.48;26.57
64460;BME280;50828;53.756;21.140;2023-06-10T17:09:28;100324.66;;;22.42;26.71
64460;BME280;50828;53.756;21.140;2023-06-10T17:14:36;100326.43;;;22.33;26.56
64460;BME280;50828;53.756;21.140;2023-06-10T17:19:43;100333.82;;;22.27;26.52
64460;BME280;50828;53.756;21.140;2023-06-10T17:24:55;100341.47;;;22.19;26.43
64460;BME280;50828;53.756;21.140;2023-06-10T17:30:03;100346.66;;;22.10;26.56
64460;BME280;50828;53.756;21.140;2023-06-10T17:35:12;100353.61;;;22.02;26.56
64460;BME280;50828;53.756;21.140;2023-06-10T17:40:19;100352.19;;;21.94;26.76
64460;BME280;50828;53.756;21.140;2023-06-10T17:45:27;100351.31;;;21.85;26.77
64460;BME280;50828;53.756;21.140;2023-06-10T17:50:36;100357.95;;;21.76;26.80
64460;BME280;50828;53.756;21.140;2023-06-10T17:55:43;100362.06;;;21.68;26.67
64460;BME280;50828;53.756;21.140;2023-06-10T18:00:51;100366.70;;;21.59;26.86
64460;BME280;50828;53.756;21.140;2023-06-10T18:05:59;100369.42;;;21.48;26.66
64460;BME280;50828;53.756;21.140;2023-06-10T18:11:07;100376.73;;;21.41;26.74
64460;BME280;50828;53.756;21.140;2023-06-10T18:16:14;100379.27;;;21.32;26.76
64460;BME280;50828;53.756;21.140;2023-06-10T18:21:22;100382.98;;;21.22;26.76
64460;BME280;50828;53.756;21.140;2023-06-10T18:26:30;100382.77;;;21.11;26.71
64460;BME280;50828;53.756;21.140;2023-06-10T18:31:38;100393.55;;;21.01;27.00
64460;BME280;50828;53.756;21.140;2023-06-10T18:36:46;100384.42;;;20.81;27.17
64460;BME280;50828;53.756;21.140;2023-06-10T18:41:53;100407.86;;;20.81;27.23
64460;BME280;50828;53.756;21.140;2023-06-10T18:47:01;100416.73;;;20.70;27.25
64460;BME280;50828;53.756;21.140;2023-06-10T18:52:09;100425.22;;;20.60;27.47
64460;BME280;50828;53.756;21.140;2023-06-10T18:57:17;100433.59;;;20.49;27.55
64460;BME280;50828;53.756;21.140;2023-06-10T19:02:25;100440.64;;;20.38;27.72
64460;BME280;50828;53.756;21.140;2023-06-10T19:07:34;100443.23;;;20.28;27.67
64460;BME280;50828;53.756;21.140;2023-06-10T19:12:42;100448.59;;;20.16;27.84
64460;BME280;50828;53.756;21.140;2023-06-10T19:17:50;100455.39;;;20.07;27.96
64460;BME280;50828;53.756;21.140;2023-06-10T19:22:59;100465.45;;;19.96;28.05
64460;BME280;50828;53.756;21.140;2023-06-10T19:28:08;100467.23;;;19.84;28.15
64460;BME280;50828;53.756;21.140;2023-06-10T19:33:16;100472.85;;;19.75;28.21
64460;BME280;50828;53.756;21.140;2023-06-10T19:38:24;100471.10;;;19.65;28.13
64460;BME280;50828;53.756;21.140;2023-06-10T19:43:32;100479.23;;;19.53;28.29
64460;BME280;50828;53.756;21.140;2023-06-10T19:48:39;100483.02;;;19.43;28.42
64460;BME280;50828;53.756;21.140;2023-06-10T19:53:47;100493.05;;;19.32;28.72
64460;BME280;50828;53.756;21.140;2023-06-10T19:58:55;100498.32;;;19.21;28.82
64460;BME280;50828;53.756;21.140;2023-06-10T20:04:03;100506.06;;;19.09;29.15
64460;BME280;50828;53.756;21.140;2023-06-10T20:09:11;100507.48;;;18.99;29.18
64460;BME280;50828;53.756;21.140;2023-06-10T20:14:19;100515.34;;;18.89;29.31
64460;BME280;50828;53.756;21.140;2023-06-10T20:19:27;100522.61;;;18.79;29.45
64460;BME280;50828;53.756;21.140;2023-06-10T20:24:35;100524.86;;;18.69;29.65
64460;BME280;50828;53.756;21.140;2023-06-10T20:29:43;100528.25;;;18.59;29.62
64460;BME280;50828;53.756;21.140;2023-06-10T20:34:51;100527.56;;;18.47;29.65
64460;BME280;50828;53.756;21.140;2023-06-10T20:39:59;100529.50;;;18.37;29.82
64460;BME280;50828;53.756;21.140;2023-06-10T20:45:09;100533.07;;;18.26;29.91
64460;BME280;50828;53.756;21.140;2023-06-10T20:50:18;100535.34;;;18.15;30.17
64460;BME280;50828;53.756;21.140;2023-06-10T20:55:26;100537.25;;;18.05;30.35
64460;BME280;50828;53.756;21.140;2023-06-10T21:00:33;100541.45;;;17.95;30.40
64460;BME280;50828;53.756;21.140;2023-06-10T21:05:41;100539.54;;;17.86;30.51
64460;BME280;50828;53.756;21.140;2023-06-10T21:10:49;100543.23;;;17.78;30.55
64460;BME280;50828;53.756;21.140;2023-06-10T21:15:57;100542.55;;;17.69;30.71
64460;BME280;50828;53.756;21.140;2023-06-10T21:21:05;100548.30;;;17.60;30.95
64460;BME280;50828;53.756;21.140;2023-06-10T21:26:13;100549.64;;;17.50;31.10
64460;BME280;50828;53.756;21.140;2023-06-10T21:31:20;100554.91;;;17.42;31.01
64460;BME280;50828;53.756;21.140;2023-06-10T21:36:30;100556.46;;;17.34;31.13
64460;BME280;50828;53.756;21.140;2023-06-10T21:41:38;100552.71;;;17.23;31.36
64460;BME280;50828;53.756;21.140;2023-06-10T21:46:45;100557.46;;;17.15;31.31
64460;BME280;50828;53.756;21.140;2023-06-10T21:51:53;100564.18;;;17.07;31.60
64460;BME280;50828;53.756;21.140;2023-06-10T21:57:00;100563.49;;;16.97;31.81
64460;BME280;50828;53.756;21.140;2023-06-10T22:02:08;100562.44;;;16.88;31.78
64460;BME280;50828;53.756;21.140;2023-06-10T22:07:16;100561.55;;;16.79;31.81
64460;BME280;50828;53.756;21.140;2023-06-10T22:12:23;100565.77;;;16.70;32.00
64460;BME280;50828;53.756;21.140;2023-06-10T22:17:31;100568.06;;;16.62;32.02
64460;BME280;50828;53.756;21.140;2023-06-10T22:22:40;100568.73;;;16.53;32.25
64460;BME280;50828;53.756;21.140;2023-06-10T22:27:47;100567.80;;;16.44;32.34
64460;BME280;50828;53.756;21.140;2023-06-10T22:32:55;100570.77;;;16.36;32.57
64460;BME280;50828;53.756;21.140;2023-06-10T22:38:03;100571.73;;;16.28;32.70
64460;BME280;50828;53.756;21.140;2023-06-10T22:43:10;100571.17;;;16.19;32.43
64460;BME280;50828;53.756;21.140;2023-06-10T22:48:18;100569.33;;;16.11;32.82
64460;BME280;50828;53.756;21.140;2023-06-10T22:53:26;100568.16;;;16.03;32.70
64460;BME280;50828;53.756;21.140;2023-06-10T22:58:34;100571.27;;;15.95;33.27
64460;BME280;50828;53.756;21.140;2023-06-10T23:03:42;100570.41;;;15.85;33.10
64460;BME280;50828;53.756;21.140;2023-06-10T23:08:51;100573.03;;;15.80;33.35
64460;BME280;50828;53.756;21.140;2023-06-10T23:13:59;100566.71;;;15.71;33.72
64460;BME280;50828;53.756;21.140;2023-06-10T23:19:06;100572.05;;;15.64;33.41
64460;BME280;50828;53.756;21.140;2023-06-10T23:24:15;100568.02;;;15.56;33.62
64460;BME280;50828;53.756;21.140;2023-06-10T23:29:23;100565.95;;;15.49;33.80
64460;BME280;50828;53.756;21.140;2023-06-10T23:34:31;100566.42;;;15.40;34.25
64460;BME280;50828;53.756;21.140;2023-06-10T23:39:39;100568.07;;;15.32;34.35
64460;BME280;50828;53.756;21.140;2023-06-10T23:44:50;100566.19;;;15.24;34.41
64460;BME280;50828;53.756;21.140;2023-06-10T23:49:58;100568.93;;;15.15;34.52
64460;BME280;50828;53.756;21.140;2023-06-10T23:55:07;100569.50;;;15.08;34.71
